createdAt,value
2018-09-09T00:00:59.493Z,66.40
2018-09-09T00:03:29.732Z,66.40
2018-09-09T00:05:59.896Z,66.30
2018-09-09T00:08:30.049Z,66.20
2018-09-09T00:11:00.257Z,66.20
2018-09-09T00:13:30.291Z,66.10
2018-09-09T00:16:00.407Z,66.10
2018-09-09T00:18:30.579Z,66.10
2018-09-09T00:21:01.400Z,66.20
2018-09-09T00:23:31.647Z,66.20
2018-09-09T00:26:01.940Z,66.10
2018-09-09T00:28:32.469Z,66.30
2018-09-09T00:31:02.669Z,66.10
2018-09-09T00:33:32.708Z,66.20
2018-09-09T00:36:02.824Z,66.00
2018-09-09T00:38:32.956Z,65.30
2018-09-09T00:41:02.825Z,66.70
2018-09-09T00:43:32.485Z,66.00
2018-09-09T00:46:02.138Z,66.10
2018-09-09T00:48:31.889Z,66.20
2018-09-09T00:51:06.690Z,66.20
2018-09-09T00:53:42.636Z,66.30
2018-09-09T00:56:12.651Z,66.20
2018-09-09T00:58:43.137Z,66.40
2018-09-09T01:01:16.631Z,66.40
2018-09-09T01:03:47.599Z,66.50
2018-09-09T01:06:17.286Z,66.50
2018-09-09T01:08:46.945Z,66.50
2018-09-09T01:11:16.605Z,66.40
2018-09-09T01:13:46.347Z,66.40
2018-09-09T01:16:15.990Z,66.30
2018-09-09T01:18:45.612Z,66.30
2018-09-09T01:21:15.266Z,66.40
2018-09-09T01:23:44.890Z,66.40
2018-09-09T01:26:14.781Z,66.40
2018-09-09T01:28:44.460Z,67.00
2018-09-09T01:31:14.206Z,66.10
2018-09-09T01:33:43.821Z,66.10
2018-09-09T01:36:13.718Z,66.20
2018-09-09T01:38:43.364Z,66.20
2018-09-09T01:41:13.102Z,66.10
2018-09-09T01:43:42.798Z,66.10
2018-09-09T01:46:12.431Z,66.10
2018-09-09T01:48:42.175Z,66.20
2018-09-09T01:51:11.795Z,66.10
2018-09-09T01:53:41.457Z,66.20
2018-09-09T01:56:11.193Z,66.20
2018-09-09T01:58:40.862Z,66.30
2018-09-09T02:01:10.593Z,66.40
2018-09-09T02:03:40.298Z,66.50
2018-09-09T02:06:09.962Z,66.40
2018-09-09T02:08:39.579Z,66.50
2018-09-09T02:11:09.327Z,66.40
2018-09-09T02:13:39.014Z,66.50
2018-09-09T02:16:08.784Z,66.60
2018-09-09T02:18:38.390Z,66.60
2018-09-09T02:21:08.133Z,66.70
2018-09-09T02:23:37.694Z,66.80
2018-09-09T02:26:07.348Z,66.70
2018-09-09T02:28:36.986Z,66.80
2018-09-09T02:31:06.595Z,66.80
2018-09-09T02:33:36.201Z,66.90
2018-09-09T02:36:06.097Z,67.10
2018-09-09T02:38:35.935Z,67.30
2018-09-09T02:41:05.650Z,67.50
2018-09-09T02:43:35.338Z,67.70
2018-09-09T02:46:04.896Z,67.70
2018-09-09T02:48:34.547Z,67.70
2018-09-09T02:51:04.234Z,67.80
2018-09-09T02:53:33.780Z,67.90
2018-09-09T02:56:07.386Z,67.90
2018-09-09T02:58:37.318Z,68.20
2018-09-09T03:01:07.264Z,68.20
2018-09-09T03:03:36.910Z,68.60
2018-09-09T03:06:06.635Z,68.70
2018-09-09T03:08:36.338Z,68.70
2018-09-09T03:11:11.370Z,69.00
2018-09-09T03:13:41.126Z,69.10
2018-09-09T03:16:11.130Z,69.00
2018-09-09T03:18:41.356Z,68.90
2018-09-09T03:21:10.958Z,69.00
2018-09-09T03:23:40.643Z,69.00
2018-09-09T03:26:10.291Z,68.90
2018-09-09T03:28:39.924Z,69.00
2018-09-09T03:31:09.537Z,69.00
2018-09-09T03:33:39.084Z,69.20
2018-09-09T03:36:08.620Z,69.30
2018-09-09T03:38:38.312Z,69.50
2018-09-09T03:41:08.155Z,69.70
2018-09-09T03:43:37.745Z,69.60
2018-09-09T03:46:07.717Z,69.60
2018-09-09T03:48:37.566Z,69.70
2018-09-09T03:51:07.181Z,69.60
2018-09-09T03:53:36.789Z,69.80
2018-09-09T03:56:06.501Z,69.70
2018-09-09T03:58:36.121Z,69.70
2018-09-09T04:01:05.886Z,69.80
2018-09-09T04:03:35.491Z,69.70
2018-09-09T04:06:05.166Z,69.80
2018-09-09T04:08:34.970Z,69.80
2018-09-09T04:11:08.945Z,69.80
2018-09-09T04:13:40.447Z,69.80
2018-09-09T04:16:11.106Z,69.80
2018-09-09T04:18:41.454Z,69.80
2018-09-09T04:21:11.116Z,69.70
2018-09-09T04:23:40.773Z,69.70
2018-09-09T04:26:10.367Z,69.70
2018-09-09T04:28:40.060Z,69.80
2018-09-09T04:31:09.761Z,69.80
2018-09-09T04:33:42.453Z,69.80
2018-09-09T04:36:12.238Z,70.00
2018-09-09T04:38:41.954Z,70.00
2018-09-09T04:41:11.665Z,70.00
2018-09-09T04:43:41.258Z,70.00
2018-09-09T04:46:10.984Z,70.00
2018-09-09T04:48:40.516Z,70.00
2018-09-09T04:51:10.151Z,69.80
2018-09-09T04:53:39.801Z,69.90
2018-09-09T04:56:09.598Z,70.10
2018-09-09T04:58:39.288Z,70.10
2018-09-09T05:01:08.928Z,70.10
2018-09-09T05:03:38.565Z,70.10
2018-09-09T05:06:08.213Z,70.10
2018-09-09T05:08:37.835Z,70.00
2018-09-09T05:11:07.570Z,70.10
2018-09-09T05:13:37.279Z,70.30
2018-09-09T05:16:06.971Z,70.40
2018-09-09T05:18:36.579Z,70.40
2018-09-09T05:21:06.265Z,70.30
2018-09-09T05:23:35.995Z,70.30
2018-09-09T05:26:05.611Z,70.40
2018-09-09T05:28:35.414Z,70.50
2018-09-09T05:31:05.306Z,70.60
2018-09-09T05:33:34.868Z,70.50
2018-09-09T05:36:04.564Z,70.70
2018-09-09T05:38:34.230Z,70.70
2018-09-09T05:41:04.202Z,70.70
2018-09-09T05:43:33.901Z,70.70
2018-09-09T05:46:03.670Z,70.70
2018-09-09T05:48:33.307Z,70.80
2018-09-09T05:51:02.921Z,70.90
2018-09-09T05:53:32.575Z,70.90
2018-09-09T05:56:02.194Z,70.80
2018-09-09T05:58:31.788Z,70.80
2018-09-09T06:01:01.506Z,70.80
2018-09-09T06:03:31.189Z,70.80
2018-09-09T06:06:00.852Z,70.80
2018-09-09T06:08:30.567Z,70.80
2018-09-09T06:11:00.296Z,70.90
2018-09-09T06:13:29.980Z,71.10
2018-09-09T06:15:59.555Z,71.20
2018-09-09T06:18:29.219Z,71.30
2018-09-09T06:20:58.999Z,71.20
2018-09-09T06:23:28.710Z,71.30
2018-09-09T06:25:58.431Z,71.30
2018-09-09T06:28:28.145Z,71.30
2018-09-09T06:30:57.854Z,71.40
2018-09-09T06:33:27.444Z,71.50
2018-09-09T06:35:57.095Z,71.50
2018-09-09T06:38:26.750Z,71.40
2018-09-09T06:40:56.377Z,71.50
2018-09-09T06:43:26.123Z,71.50
2018-09-09T06:45:55.817Z,71.20
2018-09-09T06:48:26.305Z,71.20
2018-09-09T06:50:56.042Z,71.00
2018-09-09T06:53:25.606Z,70.80
2018-09-09T06:55:55.286Z,70.60
2018-09-09T06:58:25.138Z,70.50
2018-09-09T07:00:54.778Z,70.30
2018-09-09T07:03:24.457Z,70.00
2018-09-09T07:05:54.450Z,70.00
2018-09-09T07:08:24.082Z,69.80
2018-09-09T07:10:53.784Z,69.60
2018-09-09T07:13:23.372Z,69.40
2018-09-09T07:15:53.110Z,68.90
2018-09-09T07:18:22.714Z,68.60
2018-09-09T07:20:52.450Z,68.10
2018-09-09T07:23:22.035Z,68.00
2018-09-09T07:25:51.672Z,67.70
2018-09-09T07:28:21.367Z,67.50
2018-09-09T07:30:51.099Z,67.00
2018-09-09T07:33:20.821Z,67.20
2018-09-09T07:35:50.368Z,66.90
2018-09-09T07:38:20.105Z,66.40
2018-09-09T07:40:49.831Z,66.40
2018-09-09T07:43:20.689Z,66.10
2018-09-09T07:45:50.429Z,65.80
2018-09-09T07:48:20.049Z,65.50
2018-09-09T07:50:49.732Z,64.80
2018-09-09T07:53:19.455Z,64.30
2018-09-09T07:55:49.094Z,64.50
2018-09-09T07:58:18.874Z,64.00
2018-09-09T08:00:48.505Z,63.10
2018-09-09T08:03:18.159Z,62.50
2018-09-09T08:05:47.763Z,62.40
2018-09-09T08:08:17.289Z,61.50
2018-09-09T08:10:46.844Z,61.40
2018-09-09T08:13:16.735Z,60.90
2018-09-09T08:15:46.382Z,61.00
2018-09-09T08:18:16.079Z,60.30
2018-09-09T08:20:45.620Z,59.70
2018-09-09T08:23:15.280Z,59.60
2018-09-09T08:25:44.926Z,59.20
2018-09-09T08:28:14.615Z,59.20
2018-09-09T08:30:44.398Z,59.20
2018-09-09T08:33:14.152Z,58.60
2018-09-09T08:35:43.826Z,57.80
2018-09-09T08:38:13.474Z,58.70
2018-09-09T08:40:43.208Z,58.50
2018-09-09T08:43:13.353Z,58.30
2018-09-09T08:45:43.007Z,57.90
2018-09-09T08:48:12.711Z,57.50
2018-09-09T08:50:42.356Z,57.60
2018-09-09T08:53:11.898Z,57.10
2018-09-09T08:55:41.561Z,56.80
2018-09-09T08:58:11.193Z,56.20
2018-09-09T09:00:41.025Z,55.70
2018-09-09T09:03:10.675Z,55.20
2018-09-09T09:05:40.595Z,54.50
2018-09-09T09:08:10.295Z,54.60
2018-09-09T09:10:39.841Z,54.70
2018-09-09T09:13:09.658Z,54.80
2018-09-09T09:15:39.379Z,54.10
2018-09-09T09:18:09.043Z,54.10
2018-09-09T09:20:38.912Z,54.30
2018-09-09T09:23:08.564Z,53.90
2018-09-09T09:25:42.450Z,52.50
2018-09-09T09:28:12.120Z,52.20
2018-09-09T09:30:41.912Z,52.00
2018-09-09T09:33:11.658Z,50.50
2018-09-09T09:35:46.621Z,50.40
2018-09-09T09:38:16.525Z,49.50
2018-09-09T09:40:46.230Z,49.10
2018-09-09T09:43:15.963Z,49.70
2018-09-09T09:45:45.689Z,49.30
2018-09-09T09:48:15.583Z,48.60
2018-09-09T09:50:45.229Z,47.00
2018-09-09T09:53:15.048Z,45.80
2018-09-09T09:55:44.811Z,46.80
2018-09-09T09:58:16.329Z,46.10
2018-09-09T10:00:51.132Z,46.20
2018-09-09T10:03:21.596Z,47.20
2018-09-09T10:05:51.450Z,46.50
2018-09-09T10:08:21.297Z,45.30
2018-09-09T10:10:51.024Z,44.70
2018-09-09T10:13:20.864Z,44.30
2018-09-09T10:15:50.796Z,44.20
2018-09-09T10:18:21.532Z,44.50
2018-09-09T10:20:51.386Z,42.90
2018-09-09T10:23:21.116Z,43.50
2018-09-09T10:25:50.920Z,43.50
2018-09-09T10:28:20.704Z,44.00
2018-09-09T10:30:50.748Z,43.40
2018-09-09T10:33:20.493Z,43.20
2018-09-09T10:35:50.624Z,44.10
2018-09-09T10:38:20.379Z,43.90
2018-09-09T10:40:50.264Z,44.10
2018-09-09T10:43:20.133Z,44.70
2018-09-09T10:45:50.365Z,44.30
2018-09-09T10:48:20.093Z,44.30
2018-09-09T10:50:49.931Z,43.90
2018-09-09T10:53:19.723Z,43.30
2018-09-09T10:55:49.524Z,42.60
2018-09-09T10:58:19.270Z,42.40
2018-09-09T11:00:48.915Z,41.90
2018-09-09T11:03:19.904Z,41.80
2018-09-09T11:05:49.734Z,42.20
2018-09-09T11:08:20.206Z,41.00
2018-09-09T11:10:51.634Z,40.50
2018-09-09T11:13:24.942Z,41.00
2018-09-09T11:15:54.617Z,40.00
2018-09-09T11:18:24.521Z,40.20
2018-09-09T11:20:54.253Z,40.20
2018-09-09T11:23:24.034Z,40.10
2018-09-09T11:25:53.946Z,40.30
2018-09-09T11:28:26.188Z,40.30
2018-09-09T11:30:56.071Z,40.20
2018-09-09T11:33:25.830Z,41.00
2018-09-09T11:35:56.450Z,40.80
2018-09-09T11:38:26.345Z,41.30
2018-09-09T11:40:56.272Z,41.30
2018-09-09T11:43:26.135Z,41.60
2018-09-09T11:45:56.598Z,41.90
2018-09-09T11:48:27.330Z,42.10
2018-09-09T11:50:57.193Z,42.60
2018-09-09T11:53:26.901Z,42.60
2018-09-09T11:55:56.892Z,42.70
2018-09-09T11:58:26.702Z,43.00
2018-09-09T12:00:56.474Z,43.00
2018-09-09T12:03:26.302Z,42.80
2018-09-09T12:05:56.112Z,42.50
2018-09-09T12:08:27.137Z,42.50
2018-09-09T12:10:56.757Z,43.00
2018-09-09T12:13:26.521Z,43.20
2018-09-09T12:15:56.261Z,43.70
2018-09-09T12:18:26.617Z,43.40
2018-09-09T12:20:56.382Z,43.60
2018-09-09T12:23:26.046Z,43.60
2018-09-09T12:25:55.907Z,43.70
2018-09-09T12:28:25.638Z,43.00
2018-09-09T12:30:55.515Z,42.90
2018-09-09T12:33:25.225Z,43.00
2018-09-09T12:35:54.978Z,42.80
2018-09-09T12:38:24.770Z,42.80
2018-09-09T12:40:54.589Z,43.20
2018-09-09T12:43:29.646Z,43.10
2018-09-09T12:46:04.526Z,43.10
2018-09-09T12:48:39.469Z,43.50
2018-09-09T12:51:09.223Z,42.80
2018-09-09T12:53:38.991Z,43.10
2018-09-09T12:56:08.677Z,43.00
2018-09-09T12:58:38.417Z,43.00
2018-09-09T13:01:08.207Z,43.00
2018-09-09T13:03:37.971Z,42.80
2018-09-09T13:06:07.689Z,43.00
2018-09-09T13:08:37.530Z,43.10
2018-09-09T13:11:07.237Z,43.60
2018-09-09T13:13:36.998Z,43.90
2018-09-09T13:16:07.072Z,43.80
2018-09-09T13:18:36.711Z,43.40
2018-09-09T13:21:06.374Z,43.60
2018-09-09T13:23:36.094Z,43.60
2018-09-09T13:26:05.994Z,43.00
2018-09-09T13:28:35.646Z,43.10
2018-09-09T13:31:05.512Z,43.40
2018-09-09T13:33:35.417Z,43.50
2018-09-09T13:36:05.060Z,43.30
2018-09-09T13:38:34.816Z,43.60
2018-09-09T13:41:04.497Z,43.80
2018-09-09T13:43:34.184Z,44.00
2018-09-09T13:46:03.903Z,44.10
2018-09-09T13:48:33.648Z,43.70
2018-09-09T13:51:03.389Z,42.90
2018-09-09T13:53:33.127Z,42.40
2018-09-09T13:56:02.907Z,42.70
2018-09-09T13:58:33.325Z,42.00
2018-09-09T14:01:03.835Z,42.10
2018-09-09T14:03:34.737Z,41.90
2018-09-09T14:06:04.590Z,42.40
2018-09-09T14:08:34.235Z,41.90
2018-09-09T14:11:04.047Z,41.70
2018-09-09T14:13:33.998Z,41.70
2018-09-09T14:16:03.867Z,41.70
2018-09-09T14:18:33.675Z,41.80
2018-09-09T14:21:03.481Z,42.20
2018-09-09T14:23:33.268Z,42.00
2018-09-09T14:26:02.903Z,41.90
2018-09-09T14:28:32.619Z,41.80
2018-09-09T14:31:02.216Z,42.00
2018-09-09T14:33:31.885Z,42.10
2018-09-09T14:36:01.761Z,42.20
2018-09-09T14:38:31.669Z,41.70
2018-09-09T14:41:01.297Z,41.10
2018-09-09T14:43:31.144Z,41.00
2018-09-09T14:46:00.910Z,40.00
2018-09-09T14:48:30.598Z,38.50
2018-09-09T14:51:00.592Z,38.40
2018-09-09T14:53:30.699Z,38.40
2018-09-09T14:56:00.564Z,37.80
2018-09-09T14:58:30.480Z,37.20
2018-09-09T15:01:00.121Z,37.40
2018-09-09T15:03:29.801Z,37.80
2018-09-09T15:05:59.552Z,37.90
2018-09-09T15:08:29.497Z,37.80
2018-09-09T15:10:59.250Z,37.80
2018-09-09T15:13:28.995Z,38.30
2018-09-09T15:15:58.675Z,38.00
2018-09-09T15:18:28.318Z,38.40
2018-09-09T15:20:58.062Z,38.30
2018-09-09T15:23:27.699Z,37.80
2018-09-09T15:25:57.401Z,37.00
2018-09-09T15:28:27.239Z,37.30
2018-09-09T15:30:56.838Z,36.70
2018-09-09T15:33:26.570Z,36.50
2018-09-09T15:35:56.280Z,36.60
2018-09-09T15:38:25.980Z,36.90
2018-09-09T15:40:56.685Z,37.10
2018-09-09T15:43:26.307Z,36.40
2018-09-09T15:45:55.999Z,35.20
2018-09-09T15:48:25.738Z,34.40
2018-09-09T15:50:56.214Z,33.70
2018-09-09T15:53:26.599Z,33.70
2018-09-09T15:55:56.558Z,34.30
2018-09-09T15:58:26.358Z,34.70
2018-09-09T16:00:59.379Z,34.90
2018-09-09T16:03:33.737Z,35.10
2018-09-09T16:06:03.432Z,35.00
2018-09-09T16:08:33.127Z,35.00
2018-09-09T16:11:03.007Z,35.00
2018-09-09T16:13:32.606Z,35.30
2018-09-09T16:16:02.371Z,34.60
2018-09-09T16:18:32.154Z,34.60
2018-09-09T16:21:01.886Z,35.10
2018-09-09T16:23:31.831Z,35.10
2018-09-09T16:26:01.602Z,35.30
2018-09-09T16:28:31.489Z,35.20
2018-09-09T16:31:01.095Z,35.40
2018-09-09T16:33:30.801Z,35.80
2018-09-09T16:36:00.615Z,36.00
2018-09-09T16:38:30.311Z,35.70
2018-09-09T16:40:59.941Z,35.90
2018-09-09T16:43:29.726Z,36.10
2018-09-09T16:45:59.417Z,36.30
2018-09-09T16:48:29.102Z,36.30
2018-09-09T16:50:58.722Z,36.40
2018-09-09T16:53:28.458Z,36.50
2018-09-09T16:55:58.096Z,36.80
2018-09-09T16:58:27.938Z,37.10
2018-09-09T17:00:57.607Z,37.10
2018-09-09T17:03:32.859Z,37.10
2018-09-09T17:06:02.640Z,37.50
2018-09-09T17:08:32.454Z,37.60
2018-09-09T17:11:02.267Z,37.80
2018-09-09T17:13:31.991Z,38.60
2018-09-09T17:16:01.783Z,38.20
2018-09-09T17:18:31.541Z,39.00
2018-09-09T17:21:01.349Z,39.00
2018-09-09T17:23:32.129Z,39.20
2018-09-09T17:26:01.928Z,39.60
2018-09-09T17:28:31.656Z,39.80
2018-09-09T17:31:01.324Z,40.10
2018-09-09T17:33:31.078Z,40.20
2018-09-09T17:36:00.799Z,40.50
2018-09-09T17:38:30.694Z,40.60
2018-09-09T17:41:00.420Z,40.90
2018-09-09T17:43:30.061Z,41.10
2018-09-09T17:45:59.666Z,41.30
2018-09-09T17:48:29.408Z,42.10
2018-09-09T17:50:59.162Z,41.60
2018-09-09T17:53:28.832Z,41.90
2018-09-09T17:55:59.242Z,42.00
2018-09-09T17:58:28.984Z,42.20
2018-09-09T18:00:58.649Z,42.50
2018-09-09T18:03:28.288Z,42.80
2018-09-09T18:05:58.087Z,43.00
2018-09-09T18:08:27.808Z,43.10
2018-09-09T18:10:57.540Z,43.50
2018-09-09T18:13:27.199Z,43.60
2018-09-09T18:15:56.885Z,43.90
2018-09-09T18:18:26.516Z,44.00
2018-09-09T18:20:56.402Z,44.20
2018-09-09T18:23:25.947Z,44.50
2018-09-09T18:25:55.545Z,44.60
2018-09-09T18:28:25.298Z,44.90
2018-09-09T18:30:54.927Z,44.90
2018-09-09T18:33:24.684Z,45.00
2018-09-09T18:35:54.535Z,45.10
2018-09-09T18:38:24.327Z,45.40
2018-09-09T18:40:53.935Z,45.50
2018-09-09T18:43:23.631Z,45.80
2018-09-09T18:45:53.447Z,45.80
2018-09-09T18:48:23.213Z,46.10
2018-09-09T18:50:52.986Z,46.50
2018-09-09T18:53:22.939Z,46.70
2018-09-09T18:55:52.758Z,47.00
2018-09-09T18:58:22.486Z,47.30
2018-09-09T19:00:52.446Z,47.50
2018-09-09T19:03:22.283Z,48.30
2018-09-09T19:05:52.078Z,47.80
2018-09-09T19:08:21.716Z,47.90
2018-09-09T19:10:51.340Z,47.90
2018-09-09T19:13:20.985Z,48.00
2018-09-09T19:15:51.154Z,48.10
2018-09-09T19:18:21.127Z,48.50
2018-09-09T19:20:51.354Z,48.70
2018-09-09T19:23:21.344Z,49.10
2018-09-09T19:25:51.259Z,49.20
2018-09-09T19:28:21.103Z,49.40
2018-09-09T19:30:51.062Z,49.80
2018-09-09T19:33:21.003Z,50.00
2018-09-09T19:35:50.814Z,50.20
2018-09-09T19:38:20.622Z,50.60
2018-09-09T19:40:50.375Z,51.50
2018-09-09T19:43:20.158Z,51.00
2018-09-09T19:45:49.900Z,51.40
2018-09-09T19:48:19.702Z,51.50
2018-09-09T19:50:49.435Z,52.00
2018-09-09T19:53:19.288Z,52.00
2018-09-09T19:55:49.035Z,52.40
2018-09-09T19:58:18.843Z,52.50
2018-09-09T20:00:48.825Z,52.70
2018-09-09T20:03:18.571Z,52.90
2018-09-09T20:05:48.390Z,53.40
2018-09-09T20:08:18.119Z,53.30
2018-09-09T20:10:47.943Z,53.50
2018-09-09T20:13:17.725Z,53.50
2018-09-09T20:15:48.285Z,53.90
2018-09-09T20:18:17.875Z,54.10
2018-09-09T20:20:47.684Z,54.50
2018-09-09T20:23:17.719Z,54.50
2018-09-09T20:25:47.484Z,54.60
2018-09-09T20:28:17.238Z,54.80
2018-09-09T20:30:47.139Z,55.00
2018-09-09T20:33:16.971Z,55.20
2018-09-09T20:35:47.695Z,55.30
2018-09-09T20:38:18.014Z,55.90
2018-09-09T20:40:47.892Z,56.00
2018-09-09T20:43:18.350Z,56.20
2018-09-09T20:45:48.163Z,56.30
2018-09-09T20:48:18.054Z,56.50
2018-09-09T20:50:48.416Z,56.50
2018-09-09T20:53:18.062Z,56.60
2018-09-09T20:55:49.014Z,56.70
2018-09-09T20:58:18.654Z,57.00
2018-09-09T21:00:48.372Z,57.20
2018-09-09T21:03:18.297Z,57.90
2018-09-09T21:05:47.975Z,57.50
2018-09-09T21:08:17.684Z,57.80
2018-09-09T21:10:47.414Z,57.90
2018-09-09T21:13:17.186Z,58.00
2018-09-09T21:15:46.990Z,58.10
2018-09-09T21:18:16.781Z,58.30
2018-09-09T21:20:46.668Z,58.40
2018-09-09T21:23:16.349Z,58.60
2018-09-09T21:25:46.117Z,58.70
2018-09-09T21:28:15.977Z,58.80
2018-09-09T21:30:45.663Z,59.00
2018-09-09T21:33:15.299Z,59.20
2018-09-09T21:35:44.963Z,59.30
2018-09-09T21:38:14.692Z,59.30
2018-09-09T21:40:44.330Z,59.30
2018-09-09T21:43:13.904Z,59.50
2018-09-09T21:45:43.713Z,59.70
2018-09-09T21:48:13.357Z,59.60
2018-09-09T21:50:42.943Z,59.90
2018-09-09T21:53:12.576Z,60.30
2018-09-09T21:55:42.269Z,60.30
2018-09-09T21:58:12.010Z,60.30
2018-09-09T22:00:47.002Z,60.20
2018-09-09T22:03:16.705Z,60.40
2018-09-09T22:05:46.325Z,60.20
2018-09-09T22:08:16.009Z,60.20
2018-09-09T22:10:45.564Z,60.40
2018-09-09T22:13:15.230Z,60.40
2018-09-09T22:15:44.918Z,60.40
2018-09-09T22:18:14.697Z,60.60
2018-09-09T22:20:44.418Z,60.70
2018-09-09T22:23:14.121Z,60.70
2018-09-09T22:25:43.784Z,60.70
2018-09-09T22:28:13.472Z,60.90
2018-09-09T22:30:43.182Z,61.00
2018-09-09T22:33:12.869Z,61.00
2018-09-09T22:35:42.754Z,61.00
2018-09-09T22:38:12.433Z,61.30
2018-09-09T22:40:42.133Z,61.40
2018-09-09T22:43:11.746Z,61.40
2018-09-09T22:45:41.993Z,61.70
2018-09-09T22:48:12.398Z,61.80
2018-09-09T22:50:42.058Z,62.00
2018-09-09T22:53:11.720Z,62.20
2018-09-09T22:55:41.481Z,62.20
2018-09-09T22:58:11.172Z,62.10
2018-09-09T23:00:41.029Z,62.20
2018-09-09T23:03:10.733Z,62.30
2018-09-09T23:05:40.506Z,62.30
2018-09-09T23:08:10.178Z,62.20
2018-09-09T23:10:39.857Z,62.20
2018-09-09T23:13:09.663Z,62.40
2018-09-09T23:15:39.487Z,62.40
2018-09-09T23:18:09.853Z,62.70
2018-09-09T23:20:39.502Z,63.30
2018-09-09T23:23:09.231Z,62.60
2018-09-09T23:25:38.854Z,62.70
2018-09-09T23:28:08.502Z,62.60
2018-09-09T23:30:38.200Z,63.00
2018-09-09T23:33:07.994Z,63.10
2018-09-09T23:35:37.654Z,63.30
2018-09-09T23:38:07.382Z,63.50
2018-09-09T23:40:36.973Z,63.80
2018-09-09T23:43:06.850Z,64.10
2018-09-09T23:45:36.513Z,64.10
2018-09-09T23:48:06.630Z,64.50
2018-09-09T23:50:36.472Z,64.30
2018-09-09T23:53:06.362Z,64.50
2018-09-09T23:55:36.114Z,64.70
2018-09-09T23:58:05.876Z,65.10
